createdAt,value
2023-01-11T00:01:11.265Z,271.35
2023-01-11T00:03:39.492Z,229.15
2023-01-11T00:06:07.984Z,225.02
2023-01-11T00:08:36.363Z,241.52
2023-01-11T00:11:05.616Z,236.90
2023-01-11T00:13:35.536Z,244.80
2023-01-11T00:16:08.900Z,264.45
2023-01-11T00:18:37.519Z,223.68
2023-01-11T00:21:07.320Z,244.48
2023-01-11T00:23:39.138Z,212.65
2023-01-11T00:26:10.628Z,211.65
2023-01-11T00:28:39.079Z,186.95
2023-01-11T00:31:07.456Z,163.13
2023-01-11T00:33:36.006Z,163.60
2023-01-11T00:36:05.563Z,166.50
2023-01-11T00:38:33.755Z,162.15
2023-01-11T00:41:01.949Z,157.30
2023-01-11T00:43:30.318Z,160.63
2023-01-11T00:45:59.663Z,165.20
2023-01-11T00:48:27.982Z,184.02
2023-01-11T00:50:57.713Z,191.23
2023-01-11T00:53:26.933Z,241.90
2023-01-11T00:55:55.071Z,319.88
2023-01-11T00:58:23.330Z,425.25
2023-01-11T01:00:51.530Z,452.45
2023-01-11T01:03:19.788Z,446.98
2023-01-11T01:05:48.104Z,405.67
2023-01-11T01:08:16.417Z,323.45
2023-01-11T01:10:44.535Z,266.02
2023-01-11T01:13:12.929Z,228.52
2023-01-11T01:15:42.751Z,223.20
2023-01-11T01:18:10.998Z,195.13
2023-01-11T01:20:39.391Z,217.20
2023-01-11T01:23:07.855Z,197.38
2023-01-11T01:25:38.118Z,200.55
2023-01-11T01:28:06.443Z,178.60
2023-01-11T01:30:34.607Z,193.68
2023-01-11T01:33:02.833Z,160.90
2023-01-11T01:35:31.878Z,175.18
2023-01-11T01:38:00.121Z,210.27
2023-01-11T01:40:28.257Z,190.70
2023-01-11T01:42:56.576Z,201.43
2023-01-11T01:45:27.471Z,176.05
2023-01-11T01:48:03.461Z,194.90
2023-01-11T01:50:43.808Z,202.63
2023-01-11T01:53:34.222Z,160.38
2023-01-11T01:56:07.086Z,212.48
2023-01-11T01:58:52.490Z,197.00
2023-01-11T02:01:20.849Z,230.20
2023-01-11T02:03:49.937Z,207.57
2023-01-11T02:06:18.544Z,189.60
2023-01-11T02:08:53.757Z,188.85
2023-01-11T02:11:23.865Z,187.45
2023-01-11T02:13:52.277Z,187.38
2023-01-11T02:16:20.395Z,188.40
2023-01-11T02:18:48.647Z,181.23
2023-01-11T02:22:07.293Z,174.05
2023-01-11T02:24:47.396Z,188.18
2023-01-11T02:27:52.426Z,201.30
2023-01-11T02:30:23.461Z,230.23
2023-01-11T02:33:00.415Z,219.77
2023-01-11T02:35:42.954Z,217.50
2023-01-11T02:38:27.521Z,177.18
2023-01-11T02:41:02.978Z,185.43
2023-01-11T02:43:37.486Z,188.70
2023-01-11T02:46:25.208Z,212.82
2023-01-11T02:49:17.533Z,222.60
2023-01-11T02:51:54.943Z,205.57
2023-01-11T02:54:24.753Z,215.25
2023-01-11T02:56:56.882Z,207.88
2023-01-11T03:01:57.057Z,183.95
2023-01-11T03:04:35.474Z,194.25
2023-01-11T03:07:28.492Z,192.85
2023-01-11T03:10:17.898Z,172.60
2023-01-11T03:13:36.255Z,171.30
2023-01-11T03:16:31.990Z,161.65
2023-01-11T03:19:37.378Z,149.43
2023-01-11T03:22:24.111Z,137.50
2023-01-11T03:25:11.503Z,129.38
2023-01-11T03:27:54.289Z,133.57
2023-01-11T03:30:35.258Z,139.73
2023-01-11T03:33:17.941Z,139.43
2023-01-11T03:36:15.687Z,132.45
2023-01-11T03:39:12.298Z,119.97
2023-01-11T03:41:42.329Z,139.00
2023-01-11T03:44:13.351Z,111.72
2023-01-11T03:46:47.594Z,122.25
2023-01-11T03:49:51.900Z,92.07
2023-01-11T03:52:25.643Z,100.70
2023-01-11T03:54:56.592Z,110.82
2023-01-11T03:57:30.118Z,99.43
2023-01-11T03:59:58.575Z,99.57
2023-01-11T04:02:35.385Z,80.13
2023-01-11T04:05:04.276Z,68.50
2023-01-11T04:07:32.432Z,87.47
2023-01-11T04:10:00.672Z,89.32
2023-01-11T04:12:29.067Z,80.40
2023-01-11T04:14:57.243Z,83.43
2023-01-11T04:17:25.491Z,73.28
2023-01-11T04:19:53.716Z,88.68
2023-01-11T04:22:21.843Z,79.70
2023-01-11T04:24:49.913Z,80.47
2023-01-11T04:27:18.180Z,80.70
2023-01-11T04:29:46.402Z,81.95
2023-01-11T04:32:14.575Z,81.35
2023-01-11T04:34:42.790Z,71.78
2023-01-11T04:37:11.111Z,73.68
2023-01-11T04:39:39.760Z,75.72
2023-01-11T04:42:08.058Z,81.03
2023-01-11T04:44:36.855Z,98.10
2023-01-11T04:47:05.792Z,109.00
2023-01-11T04:49:33.955Z,92.60
2023-01-11T04:52:02.183Z,105.18
2023-01-11T04:54:30.394Z,94.07
2023-01-11T04:56:59.222Z,106.55
2023-01-11T04:59:27.434Z,95.03
2023-01-11T05:01:55.691Z,91.18
2023-01-11T05:04:24.028Z,90.65
2023-01-11T05:06:52.574Z,91.55
2023-01-11T05:09:21.100Z,87.07
2023-01-11T05:11:50.742Z,84.55
2023-01-11T05:14:19.031Z,92.43
2023-01-11T05:16:47.297Z,104.32
2023-01-11T05:19:15.498Z,102.82
2023-01-11T05:21:43.859Z,94.15
2023-01-11T05:24:17.351Z,87.28
2023-01-11T05:26:46.219Z,100.93
2023-01-11T05:29:15.753Z,106.93
2023-01-11T05:31:44.167Z,101.10
2023-01-11T05:34:14.408Z,106.13
2023-01-11T05:36:43.241Z,93.85
2023-01-11T05:39:15.466Z,86.40
2023-01-11T05:41:43.717Z,79.93
2023-01-11T05:44:13.339Z,104.05
2023-01-11T05:46:43.590Z,79.43
2023-01-11T05:49:13.657Z,95.70
2023-01-11T05:51:43.372Z,81.15
2023-01-11T05:54:14.587Z,83.85
2023-01-11T05:56:43.040Z,68.82
2023-01-11T05:59:11.688Z,72.57
2023-01-11T06:01:40.295Z,81.15
2023-01-11T06:04:08.770Z,76.18
2023-01-11T06:06:37.240Z,78.22
2023-01-11T06:09:05.488Z,68.47
2023-01-11T06:11:33.900Z,71.18
2023-01-11T06:14:02.210Z,79.60
2023-01-11T06:16:30.581Z,87.05
2023-01-11T06:18:58.830Z,83.97
2023-01-11T06:21:26.992Z,85.40
2023-01-11T06:23:55.284Z,74.93
2023-01-11T06:26:23.913Z,77.57
2023-01-11T06:28:52.713Z,85.20
2023-01-11T06:31:21.098Z,72.88
2023-01-11T06:33:49.317Z,78.32
2023-01-11T06:36:18.048Z,72.53
2023-01-11T06:38:46.310Z,85.47
2023-01-11T06:41:14.690Z,83.00
2023-01-11T06:43:43.085Z,74.72
2023-01-11T06:46:13.488Z,94.63
2023-01-11T06:48:41.796Z,85.03
2023-01-11T06:51:10.282Z,66.28
2023-01-11T06:53:39.394Z,90.15
2023-01-11T06:56:07.949Z,81.20
2023-01-11T06:58:36.311Z,90.70
2023-01-11T07:01:04.759Z,95.22
2023-01-11T07:03:33.168Z,94.10
2023-01-11T07:06:02.774Z,89.93
2023-01-11T07:08:31.032Z,91.55
2023-01-11T07:11:00.323Z,81.00
2023-01-11T07:13:28.551Z,92.57
2023-01-11T07:15:58.593Z,81.03
2023-01-11T07:18:28.179Z,74.68
2023-01-11T07:20:56.391Z,84.25
2023-01-11T07:23:24.468Z,84.90
2023-01-11T07:26:02.279Z,99.28
2023-01-11T07:28:30.475Z,99.85
2023-01-11T07:30:59.727Z,92.93
2023-01-11T07:33:28.816Z,83.05
2023-01-11T07:35:57.151Z,98.10
2023-01-11T07:38:26.129Z,91.22
2023-01-11T07:40:54.387Z,95.60
2023-01-11T07:43:22.726Z,104.28
2023-01-11T07:45:53.097Z,97.97
2023-01-11T07:48:25.127Z,106.72
2023-01-11T07:53:23.120Z,108.43
2023-01-11T07:55:51.343Z,95.38
2023-01-11T07:58:19.429Z,97.60
2023-01-11T08:00:47.782Z,105.93
2023-01-11T08:03:16.113Z,98.60
2023-01-11T08:05:44.467Z,100.90
2023-01-11T08:08:12.716Z,113.03
2023-01-11T08:10:42.180Z,105.38
2023-01-11T08:13:14.453Z,94.78
2023-01-11T08:15:42.898Z,112.10
2023-01-11T08:18:12.356Z,92.68
2023-01-11T08:20:42.062Z,96.18
2023-01-11T08:23:11.265Z,87.00
2023-01-11T08:25:39.691Z,108.70
2023-01-11T08:28:08.532Z,94.82
2023-01-11T08:30:37.910Z,83.82
2023-01-11T08:33:06.765Z,103.78
2023-01-11T08:35:39.460Z,103.05
2023-01-11T08:38:08.443Z,92.95
2023-01-11T08:40:37.081Z,96.82
2023-01-11T08:43:05.379Z,90.60
2023-01-11T08:45:33.707Z,79.70
2023-01-11T08:48:02.188Z,103.72
2023-01-11T08:50:30.379Z,80.55
2023-01-11T08:52:58.661Z,100.43
2023-01-11T08:55:27.003Z,98.32
2023-01-11T08:57:58.071Z,119.13
2023-01-11T09:00:26.444Z,110.38
2023-01-11T09:02:54.947Z,100.30
2023-01-11T09:05:23.556Z,106.68
2023-01-11T09:07:52.030Z,90.15
2023-01-11T09:10:20.363Z,98.97
2023-01-11T09:12:48.746Z,108.55
2023-01-11T09:15:17.137Z,93.68
2023-01-11T09:17:47.107Z,96.10
2023-01-11T09:20:15.401Z,83.45
2023-01-11T09:22:48.109Z,95.78
2023-01-11T09:25:17.185Z,100.32
2023-01-11T09:27:49.752Z,84.00
2023-01-11T09:30:20.814Z,78.82
2023-01-11T09:32:50.546Z,91.93
2023-01-11T09:35:19.836Z,88.13
2023-01-11T09:37:52.478Z,87.32
2023-01-11T09:40:27.670Z,94.15
2023-01-11T09:42:56.077Z,87.97
2023-01-11T09:45:26.762Z,94.28
2023-01-11T09:48:03.796Z,106.72
2023-01-11T09:50:35.602Z,111.40
2023-01-11T09:53:06.708Z,112.22
2023-01-11T09:55:42.998Z,112.32
2023-01-11T09:58:19.296Z,128.73
2023-01-11T10:01:06.079Z,111.57
2023-01-11T10:03:34.288Z,112.30
2023-01-11T10:06:24.290Z,90.90
2023-01-11T10:18:26.028Z,83.80
2023-01-11T10:21:28.760Z,93.15
2023-01-11T10:24:11.025Z,89.20
2023-01-11T10:26:40.418Z,102.35
2023-01-11T10:29:17.303Z,114.45
2023-01-11T10:31:59.860Z,96.43
2023-01-11T10:34:35.220Z,97.57
2023-01-11T10:37:09.759Z,132.45
2023-01-11T10:40:08.749Z,109.38
2023-01-11T10:42:53.956Z,110.25
2023-01-11T10:45:31.142Z,103.43
2023-01-11T10:48:10.856Z,116.80
2023-01-11T10:50:57.562Z,106.00
2023-01-11T10:53:56.560Z,103.18
2023-01-11T10:57:02.922Z,105.43
2023-01-11T10:59:40.357Z,178.93
2023-01-11T11:02:17.957Z,134.90
2023-01-11T11:05:08.334Z,117.28
2023-01-11T11:07:36.735Z,136.85
2023-01-11T11:10:21.997Z,122.68
2023-01-11T11:13:21.531Z,108.40
2023-01-11T11:16:12.348Z,116.93
2023-01-11T11:18:41.914Z,101.47
2023-01-11T11:21:23.576Z,97.93
2023-01-11T11:24:06.724Z,90.00
2023-01-11T11:26:47.560Z,91.03
2023-01-11T11:29:24.353Z,103.88
2023-01-11T11:31:53.003Z,82.10
2023-01-11T11:34:22.712Z,77.82
2023-01-11T11:36:53.132Z,92.22
2023-01-11T11:39:25.836Z,106.90
2023-01-11T11:41:56.669Z,101.85
2023-01-11T11:44:29.004Z,94.30
2023-01-11T11:47:20.541Z,95.03
2023-01-11T11:49:48.843Z,116.50
2023-01-11T11:52:21.289Z,83.53
2023-01-11T11:54:57.465Z,94.53
2023-01-11T11:57:33.468Z,83.93
2023-01-11T12:00:08.696Z,96.53
2023-01-11T12:02:41.380Z,99.47
2023-01-11T12:05:11.417Z,116.15
2023-01-11T12:07:54.790Z,108.93
2023-01-11T12:10:27.452Z,101.18
2023-01-11T12:15:30.329Z,90.90
2023-01-11T12:18:17.097Z,117.18
2023-01-11T12:20:45.375Z,99.53
2023-01-11T12:23:20.435Z,107.75
2023-01-11T12:26:07.236Z,110.72
2023-01-11T12:28:54.088Z,88.88
2023-01-11T12:32:00.888Z,87.50
2023-01-11T12:35:06.674Z,87.95
2023-01-11T12:37:56.402Z,103.13
2023-01-11T12:40:30.670Z,102.80
2023-01-11T12:43:32.843Z,101.65
2023-01-11T12:46:04.085Z,126.30
2023-01-11T12:51:14.739Z,106.28
2023-01-11T12:53:54.889Z,96.10
2023-01-11T12:57:01.625Z,94.38
2023-01-11T12:59:49.761Z,101.00
2023-01-11T13:02:32.928Z,104.40
2023-01-11T13:05:10.188Z,95.63
2023-01-11T13:07:58.077Z,106.53
2023-01-11T13:10:32.474Z,88.43
2023-01-11T13:13:09.898Z,99.75
2023-01-11T13:15:59.438Z,94.88
2023-01-11T13:18:30.601Z,96.60
2023-01-11T13:21:25.318Z,111.10
2023-01-11T13:24:02.478Z,102.43
2023-01-11T13:26:39.766Z,93.88
2023-01-11T13:29:16.612Z,80.35
2023-01-11T13:31:47.493Z,81.28
2023-01-11T13:34:34.221Z,80.10
2023-01-11T13:37:31.024Z,100.35
2023-01-11T13:40:23.135Z,92.13
2023-01-11T13:43:01.312Z,104.97
2023-01-11T13:45:43.712Z,95.97
2023-01-11T13:48:12.191Z,107.32
2023-01-11T13:50:53.200Z,98.63
2023-01-11T13:53:53.877Z,94.18
2023-01-11T13:57:13.754Z,110.55
2023-01-11T13:59:52.066Z,90.50
2023-01-11T14:02:31.321Z,84.60
2023-01-11T14:05:11.311Z,97.80
2023-01-11T14:07:42.372Z,103.07
2023-01-11T14:10:46.197Z,98.10
2023-01-11T14:13:28.519Z,100.90
2023-01-11T14:16:09.984Z,118.53
2023-01-11T14:19:00.707Z,99.47
2023-01-11T14:21:41.422Z,119.93
2023-01-11T14:24:11.870Z,92.03
2023-01-11T14:27:15.523Z,77.40
2023-01-11T14:29:59.250Z,99.20
2023-01-11T14:32:47.012Z,105.97
2023-01-11T14:35:41.402Z,107.82
2023-01-11T14:38:39.497Z,101.88
2023-01-11T14:41:36.242Z,97.43
2023-01-11T14:44:25.830Z,104.80
2023-01-11T14:47:30.922Z,103.50
2023-01-11T14:50:17.662Z,89.53
2023-01-11T14:52:46.946Z,83.07
2023-01-11T14:55:43.561Z,129.88
2023-01-11T14:58:32.119Z,107.88
2023-01-11T15:01:00.430Z,93.70
2023-01-11T15:03:42.681Z,94.22
2023-01-11T15:06:18.718Z,95.57
2023-01-11T15:08:50.383Z,111.72
2023-01-11T15:11:23.866Z,82.57
2023-01-11T15:14:06.071Z,80.15
2023-01-11T15:16:36.052Z,84.57
2023-01-11T15:19:10.829Z,76.78
2023-01-11T15:21:47.418Z,76.97
2023-01-11T15:24:29.556Z,88.75
2023-01-11T15:27:00.613Z,80.40
2023-01-11T15:29:36.082Z,91.47
2023-01-11T15:32:04.475Z,77.72
2023-01-11T15:34:32.672Z,84.60
2023-01-11T15:37:03.912Z,101.07
2023-01-11T15:39:41.382Z,76.28
2023-01-11T15:42:15.889Z,82.78
2023-01-11T15:45:22.590Z,96.07
2023-01-11T15:48:09.150Z,105.97
2023-01-11T15:51:05.116Z,79.90
2023-01-11T15:54:13.663Z,91.22
2023-01-11T15:57:12.850Z,101.22
2023-01-11T16:00:02.777Z,83.63
2023-01-11T16:03:01.599Z,86.40
2023-01-11T16:05:35.720Z,81.93
2023-01-11T16:08:22.184Z,94.40
2023-01-11T16:11:03.059Z,83.35
2023-01-11T16:14:14.209Z,77.57
2023-01-11T16:16:44.439Z,93.95
2023-01-11T16:19:22.678Z,100.32
2023-01-11T16:21:56.384Z,118.18
2023-01-11T16:24:28.235Z,90.75
2023-01-11T16:29:36.772Z,87.18
2023-01-11T16:32:07.829Z,90.28
2023-01-11T16:34:44.030Z,98.65
2023-01-11T16:37:24.153Z,92.03
2023-01-11T16:39:57.554Z,115.78
2023-01-11T16:42:28.809Z,95.70
2023-01-11T16:45:05.104Z,104.32
2023-01-11T16:47:33.486Z,79.88
2023-01-11T16:50:20.997Z,100.80
2023-01-11T16:53:15.989Z,105.60
2023-01-11T16:56:07.559Z,102.38
2023-01-11T16:58:37.825Z,89.45
2023-01-11T17:01:09.019Z,83.40
2023-01-11T17:03:55.526Z,123.47
2023-01-11T17:06:25.756Z,101.85
2023-01-11T17:08:58.184Z,101.20
2023-01-11T17:11:40.694Z,83.38
2023-01-11T17:14:45.398Z,89.75
2023-01-11T17:17:14.610Z,110.30
2023-01-11T17:19:46.507Z,102.38
2023-01-11T17:22:28.708Z,114.93
2023-01-11T17:24:59.533Z,90.20
2023-01-11T17:27:40.590Z,108.40
2023-01-11T17:30:35.113Z,122.53
2023-01-11T17:33:03.436Z,92.18
2023-01-11T17:35:36.225Z,124.82
2023-01-11T17:38:07.921Z,128.02
2023-01-11T17:40:41.261Z,86.38
2023-01-11T17:43:14.068Z,82.15
2023-01-11T17:45:43.368Z,102.32
2023-01-11T17:48:14.608Z,104.97
2023-01-11T17:50:56.351Z,88.32
2023-01-11T17:53:33.246Z,94.70
2023-01-11T17:56:02.839Z,120.82
2023-01-11T17:58:38.742Z,98.00
2023-01-11T18:01:14.505Z,93.68
2023-01-11T18:03:47.229Z,82.75
2023-01-11T18:06:24.478Z,110.97
2023-01-11T18:08:55.564Z,109.78
2023-01-11T18:11:27.952Z,111.83
2023-01-11T18:13:59.777Z,99.70
2023-01-11T18:16:28.717Z,97.15
2023-01-11T18:18:57.594Z,76.82
2023-01-11T18:21:38.194Z,101.00
2023-01-11T18:24:12.823Z,104.25
2023-01-11T18:26:43.296Z,113.65
2023-01-11T18:29:40.838Z,106.97
2023-01-11T18:32:12.060Z,145.63
2023-01-11T18:34:40.844Z,124.05
2023-01-11T18:37:12.259Z,99.50
2023-01-11T18:39:40.593Z,120.93
2023-01-11T18:42:11.532Z,109.03
2023-01-11T18:44:41.642Z,125.32
2023-01-11T18:47:39.014Z,100.63
2023-01-11T18:50:07.915Z,147.15
2023-01-11T18:52:36.794Z,124.45
2023-01-11T18:55:06.138Z,121.05
2023-01-11T18:57:34.354Z,103.13
2023-01-11T19:00:02.744Z,104.40
2023-01-11T19:02:45.187Z,127.18
2023-01-11T19:05:15.406Z,98.57
2023-01-11T19:07:43.762Z,114.00
2023-01-11T19:10:16.131Z,106.57
2023-01-11T19:12:44.518Z,105.30
2023-01-11T19:15:14.287Z,104.03
2023-01-11T19:17:43.519Z,114.25
2023-01-11T19:20:12.284Z,205.25
2023-01-11T19:22:41.320Z,183.82
2023-01-11T19:25:10.297Z,121.50
2023-01-11T19:27:38.842Z,110.43
2023-01-11T19:30:08.042Z,112.70
2023-01-11T19:32:36.405Z,92.85
2023-01-11T19:35:05.159Z,103.25
2023-01-11T19:37:34.149Z,101.22
2023-01-11T19:40:02.464Z,111.50
2023-01-11T19:42:30.747Z,240.90
2023-01-11T19:44:58.955Z,231.52
2023-01-11T19:47:27.270Z,174.90
2023-01-11T19:49:55.556Z,167.63
2023-01-11T19:52:23.973Z,219.00
2023-01-11T19:54:52.258Z,278.85
2023-01-11T19:57:21.422Z,176.63
2023-01-11T19:59:50.824Z,119.10
2023-01-11T20:02:21.388Z,121.65
2023-01-11T20:04:49.731Z,138.80
2023-01-11T20:07:19.172Z,180.70
2023-01-11T20:09:47.493Z,123.30
2023-01-11T20:12:15.631Z,91.75
2023-01-11T20:14:44.259Z,109.30
2023-01-11T20:17:13.251Z,144.02
2023-01-11T20:19:41.369Z,143.93
2023-01-11T20:22:09.926Z,210.88
2023-01-11T20:24:38.259Z,185.93
2023-01-11T20:27:07.679Z,116.82
2023-01-11T20:29:37.116Z,142.85
2023-01-11T20:32:27.894Z,147.25
2023-01-11T20:34:54.092Z,155.20
2023-01-11T20:37:22.448Z,131.75
2023-01-11T20:39:50.844Z,120.32
2023-01-11T20:42:19.125Z,135.30
2023-01-11T20:44:47.358Z,116.65
2023-01-11T20:47:15.572Z,112.97
2023-01-11T20:49:44.212Z,108.50
2023-01-11T20:52:12.574Z,154.98
2023-01-11T20:54:40.844Z,216.43
2023-01-11T20:57:09.125Z,194.15
2023-01-11T20:59:37.562Z,201.30
2023-01-11T21:02:05.929Z,175.02
2023-01-11T21:04:34.469Z,135.60
2023-01-11T21:07:02.852Z,149.38
2023-01-11T21:09:33.131Z,137.50
2023-01-11T21:12:01.411Z,179.02
2023-01-11T21:14:29.661Z,165.77
2023-01-11T21:16:58.910Z,152.23
2023-01-11T21:19:30.171Z,176.48
2023-01-11T21:21:58.721Z,160.40
2023-01-11T21:24:27.126Z,153.85
2023-01-11T21:26:55.347Z,119.35
2023-01-11T21:29:23.766Z,123.00
2023-01-11T21:31:52.106Z,129.52
2023-01-11T21:34:20.605Z,135.75
2023-01-11T21:36:48.809Z,160.00
2023-01-11T21:39:17.760Z,170.80
2023-01-11T21:41:46.218Z,219.40
2023-01-11T21:44:15.467Z,165.10
2023-01-11T21:46:45.139Z,133.23
2023-01-11T21:49:14.269Z,102.97
2023-01-11T21:51:43.287Z,110.38
2023-01-11T21:54:14.382Z,110.22
2023-01-11T21:56:42.861Z,121.63
2023-01-11T21:59:11.336Z,129.70
2023-01-11T22:01:41.614Z,132.63
2023-01-11T22:04:12.564Z,146.70
2023-01-11T22:06:43.033Z,115.80
2023-01-11T22:09:12.415Z,106.55
2023-01-11T22:11:40.974Z,104.50
2023-01-11T22:14:09.471Z,133.48
2023-01-11T22:16:38.281Z,111.68
2023-01-11T22:19:07.985Z,102.45
2023-01-11T22:21:37.281Z,104.10
2023-01-11T22:24:08.887Z,102.10
2023-01-11T22:26:39.071Z,93.00
2023-01-11T22:29:08.829Z,112.22
2023-01-11T22:31:37.175Z,110.13
2023-01-11T22:34:05.703Z,104.50
2023-01-11T22:36:34.135Z,89.40
2023-01-11T22:39:02.457Z,89.88
2023-01-11T22:41:30.782Z,89.82
2023-01-11T22:43:58.954Z,102.18
2023-01-11T22:46:28.434Z,104.93
2023-01-11T22:48:56.780Z,87.97
2023-01-11T22:51:26.508Z,101.78
2023-01-11T22:53:56.016Z,90.43
2023-01-11T22:56:26.679Z,99.18
2023-01-11T22:58:55.399Z,73.15
2023-01-11T23:01:29.387Z,100.20
2023-01-11T23:03:58.398Z,104.85
2023-01-11T23:06:32.392Z,107.03
2023-01-11T23:09:01.196Z,116.32
2023-01-11T23:11:31.842Z,102.32
2023-01-11T23:14:02.951Z,113.15
2023-01-11T23:16:31.628Z,131.00
2023-01-11T23:18:59.975Z,144.70
2023-01-11T23:21:28.186Z,125.30
2023-01-11T23:23:56.450Z,122.85
2023-01-11T23:26:24.789Z,103.32
2023-01-11T23:28:52.961Z,96.40
2023-01-11T23:31:24.217Z,89.63
2023-01-11T23:33:55.156Z,111.88
2023-01-11T23:36:26.921Z,207.40
2023-01-11T23:38:55.257Z,113.13
2023-01-11T23:41:24.267Z,77.97
2023-01-11T23:43:52.412Z,87.00
2023-01-11T23:46:21.169Z,80.05
2023-01-11T23:48:49.286Z,85.78
2023-01-11T23:51:17.584Z,150.60
2023-01-11T23:53:46.035Z,128.43
2023-01-11T23:56:14.205Z,111.30
2023-01-11T23:58:42.463Z,88.53
